createdAt,value
2016-04-12T00:00:07.735Z,1006.41
2016-04-12T00:00:17.735Z,1006.38
2016-04-12T00:00:27.720Z,1006.37
2016-04-12T00:00:37.722Z,1006.34
2016-04-12T00:00:47.706Z,1006.34
2016-04-12T00:00:57.737Z,1006.31
2016-04-12T00:01:07.722Z,1006.31
2016-04-12T00:01:17.706Z,1006.31
2016-04-12T00:01:27.815Z,1006.3
2016-04-12T00:01:37.834Z,1006.34
2016-04-12T00:01:47.693Z,1006.36
2016-04-12T00:01:57.693Z,1006.31
2016-04-12T00:02:07.693Z,1006.3
2016-04-12T00:02:17.693Z,1006.31
2016-04-12T00:02:27.678Z,1006.31
2016-04-12T00:02:37.681Z,1006.33
2016-04-12T00:02:47.681Z,1006.33
2016-04-12T00:02:57.665Z,1006.32
2016-04-12T00:03:07.665Z,1006.32
2016-04-12T00:03:17.650Z,1006.31
2016-04-12T00:03:27.665Z,1006.32
2016-04-12T00:03:37.652Z,1006.27
2016-04-12T00:03:47.652Z,1006.26
2016-04-12T00:03:57.652Z,1006.3
2016-04-12T00:04:07.636Z,1006.27
2016-04-12T00:04:17.652Z,1006.3
2016-04-12T00:04:27.652Z,1006.29
2016-04-12T00:04:37.639Z,1006.3
2016-04-12T00:04:47.639Z,1006.28
2016-04-12T00:04:57.623Z,1006.27
2016-04-12T00:05:07.639Z,1006.27
2016-04-12T00:05:17.623Z,1006.3
2016-04-12T00:05:27.608Z,1006.26
2016-04-12T00:05:37.610Z,1006.26
2016-04-12T00:05:47.610Z,1006.27
2016-04-12T00:05:57.625Z,1006.22
2016-04-12T00:06:07.610Z,1006.23
2016-04-12T00:06:17.594Z,1006.23
2016-04-12T00:06:27.578Z,1006.25
2016-04-12T00:06:37.581Z,1006.24
2016-04-12T00:06:47.597Z,1006.25
2016-04-12T00:06:57.581Z,1006.25
2016-04-12T00:07:07.581Z,1006.24
2016-04-12T00:07:17.566Z,1006.26
2016-04-12T00:07:27.566Z,1006.25
2016-04-12T00:07:37.584Z,1006.21
2016-04-12T00:07:47.569Z,1006.21
2016-04-12T00:07:57.569Z,1006.22
2016-04-12T00:08:07.558Z,1006.24
2016-04-12T00:08:17.542Z,1006.27
2016-04-12T00:08:27.542Z,1006.22
2016-04-12T00:08:37.545Z,1006.24
2016-04-12T00:08:47.551Z,1006.24
2016-04-12T00:08:57.551Z,1006.25
2016-04-12T00:09:07.536Z,1006.25
2016-04-12T00:09:17.536Z,1006.25
2016-04-12T00:09:27.520Z,1006.28
2016-04-12T00:09:37.539Z,1006.24
2016-04-12T00:09:47.523Z,1006.24
2016-04-12T00:09:57.523Z,1006.23
2016-04-12T00:10:07.507Z,1006.26
2016-04-12T00:10:17.492Z,1006.23
2016-04-12T00:10:27.492Z,1006.26
2016-04-12T00:10:37.510Z,1006.27
2016-04-12T00:10:47.495Z,1006.27
2016-04-12T00:10:57.495Z,1006.29
2016-04-12T00:11:07.495Z,1006.25
2016-04-12T00:11:17.479Z,1006.25
2016-04-12T00:11:27.479Z,1006.23
2016-04-12T00:11:37.481Z,1006.23
2016-04-12T00:11:47.481Z,1006.23
2016-04-12T00:11:57.466Z,1006.27
2016-04-12T00:12:07.466Z,1006.25
2016-04-12T00:12:17.466Z,1006.28
2016-04-12T00:12:27.466Z,1006.25
2016-04-12T00:12:37.453Z,1006.26
2016-04-12T00:12:47.453Z,1006.23
2016-04-12T00:12:57.453Z,1006.25
2016-04-12T00:13:07.453Z,1006.23
2016-04-12T00:13:17.453Z,1006.26
2016-04-12T00:13:27.437Z,1006.23
2016-04-12T00:13:37.440Z,1006.22
2016-04-12T00:13:47.440Z,1006.25
2016-04-12T00:13:57.425Z,1006.23
2016-04-12T00:14:07.425Z,1006.3
2016-04-12T00:14:17.425Z,1006.25
2016-04-12T00:14:27.425Z,1006.29
2016-04-12T00:14:37.427Z,1006.23
2016-04-12T00:14:47.411Z,1006.29
2016-04-12T00:14:57.411Z,1006.24
2016-04-12T00:15:07.395Z,1006.23
2016-04-12T00:15:17.395Z,1006.22
2016-04-12T00:15:27.395Z,1006.2
2016-04-12T00:15:37.398Z,1006.23
2016-04-12T00:15:47.398Z,1006.22
2016-04-12T00:15:57.383Z,1006.19
2016-04-12T00:16:07.211Z,1006.22
2016-04-12T00:16:17.367Z,1006.22
2016-04-12T00:16:27.555Z,1006.2
2016-04-12T00:16:37.588Z,1006.26
2016-04-12T00:16:47.354Z,1006.21
2016-04-12T00:16:57.354Z,1006.22
2016-04-12T00:17:07.354Z,1006.24
2016-04-12T00:17:17.354Z,1006.21
2016-04-12T00:17:27.354Z,1006.2
2016-04-12T00:17:37.341Z,1006.19
2016-04-12T00:17:47.357Z,1006.2
2016-04-12T00:17:57.325Z,1006.23
2016-04-12T00:18:07.325Z,1006.21
2016-04-12T00:18:17.341Z,1006.23
2016-04-12T00:18:27.325Z,1006.2
2016-04-12T00:18:37.328Z,1006.2
2016-04-12T00:18:47.313Z,1006.21
2016-04-12T00:18:57.313Z,1006.23
2016-04-12T00:19:07.313Z,1006.19
2016-04-12T00:19:17.328Z,1006.21
2016-04-12T00:19:27.297Z,1006.21
2016-04-12T00:19:37.299Z,1006.22
2016-04-12T00:19:47.299Z,1006.19
2016-04-12T00:20:00.971Z,1006.2
2016-04-12T00:20:07.268Z,1006.21
2016-04-12T00:20:17.283Z,1006.19
2016-04-12T00:20:27.283Z,1006.2
2016-04-12T00:20:36.521Z,1006.15
2016-04-12T00:20:47.271Z,1006.18
2016-04-12T00:20:57.255Z,1006.19
2016-04-12T00:21:07.255Z,1006.17
2016-04-12T00:21:17.286Z,1006.16
2016-04-12T00:21:27.255Z,1006.18
2016-04-12T00:21:37.257Z,1006.18
2016-04-12T00:21:47.257Z,1006.21
2016-04-12T00:21:57.242Z,1006.16
2016-04-12T00:22:07.257Z,1006.17
2016-04-12T00:22:17.242Z,1006.15
2016-04-12T00:22:27.226Z,1006.13
2016-04-12T00:22:37.230Z,1006.14
2016-04-12T00:22:47.246Z,1006.16
2016-04-12T00:22:57.214Z,1006.14
2016-04-12T00:23:07.230Z,1006.15
2016-04-12T00:23:17.214Z,1006.14
2016-04-12T00:23:27.230Z,1006.13
2016-04-12T00:23:37.216Z,1006.11
2016-04-12T00:23:47.232Z,1006.15
2016-04-12T00:23:57.216Z,1006.1
2016-04-12T00:24:07.185Z,1006.15
2016-04-12T00:24:17.201Z,1006.14
2016-04-12T00:24:27.185Z,1006.12
2016-04-12T00:24:37.188Z,1006.11
2016-04-12T00:24:47.188Z,1006.12
2016-04-12T00:24:57.172Z,1006.13
2016-04-12T00:25:07.172Z,1006.08
2016-04-12T00:25:17.172Z,1006.1
2016-04-12T00:25:27.172Z,1006.08
2016-04-12T00:25:37.159Z,1006.1
2016-04-12T00:25:47.174Z,1006.1
2016-04-12T00:25:57.159Z,1006.1
2016-04-12T00:26:07.159Z,1006.08
2016-04-12T00:26:17.143Z,1006.07
2016-04-12T00:26:27.143Z,1006.06
2016-04-12T00:26:37.147Z,1006.1
2016-04-12T00:26:47.147Z,1006.04
2016-04-12T00:26:57.147Z,1006.07
2016-04-12T00:27:07.147Z,1006.08
2016-04-12T00:27:17.132Z,1006.08
2016-04-12T00:27:27.132Z,1006.07
2016-04-12T00:27:37.117Z,1006.06
2016-04-12T00:27:47.133Z,1006.07
2016-04-12T00:27:57.117Z,1006.07
2016-04-12T00:28:07.101Z,1006.09
2016-04-12T00:28:17.117Z,1006.06
2016-04-12T00:28:27.117Z,1006.08
2016-04-12T00:28:37.105Z,1006.06
2016-04-12T00:28:47.090Z,1006.08
2016-04-12T00:28:57.090Z,1006.07
2016-04-12T00:29:07.074Z,1006.06
2016-04-12T00:29:17.074Z,1006.06
2016-04-12T00:29:27.090Z,1006.04
2016-04-12T00:29:37.077Z,1006.07
2016-04-12T00:29:47.077Z,1006.06
2016-04-12T00:29:57.061Z,1006.06
2016-04-12T00:30:07.061Z,1006.06
2016-04-12T00:30:17.039Z,1006.07
2016-04-12T00:30:27.044Z,1006.08
2016-04-12T00:30:37.046Z,1006.05
2016-04-12T00:30:47.061Z,1006.03
2016-04-12T00:30:56.921Z,1006.06
2016-04-12T00:31:07.046Z,1006.04
2016-04-12T00:31:16.733Z,1006.06
2016-04-12T00:31:26.843Z,1006.04
2016-04-12T00:31:37.104Z,1006.11
2016-04-12T00:31:47.041Z,1006.03
2016-04-12T00:31:57.025Z,1006.02
2016-04-12T00:32:06.869Z,1006.05
2016-04-12T00:32:17.041Z,1006.04
2016-04-12T00:32:27.015Z,1006
2016-04-12T00:32:37.017Z,1006.05
2016-04-12T00:32:47.001Z,1006.05
2016-04-12T00:32:56.985Z,1006.04
2016-04-12T00:33:06.985Z,1006.04
2016-04-12T00:33:16.985Z,1006.03
2016-04-12T00:33:26.985Z,1006.05
2016-04-12T00:33:37.004Z,1006.02
2016-04-12T00:33:46.973Z,1006.02
2016-04-12T00:33:56.973Z,1006.02
2016-04-12T00:34:06.957Z,1006.02
2016-04-12T00:34:16.973Z,1006.02
2016-04-12T00:34:26.957Z,1006.08
2016-04-12T00:34:36.959Z,1005.99
2016-04-12T00:34:46.959Z,1006
2016-04-12T00:34:56.944Z,1006.04
2016-04-12T00:35:06.959Z,1006.02
2016-04-12T00:35:16.944Z,1006.01
2016-04-12T00:35:26.944Z,1006.01
2016-04-12T00:35:36.947Z,1006
2016-04-12T00:35:46.947Z,1006
2016-04-12T00:35:56.947Z,1006.01
2016-04-12T00:36:06.915Z,1006.01
2016-04-12T00:36:16.931Z,1005.97
2016-04-12T00:36:26.915Z,1005.94
2016-04-12T00:36:36.918Z,1005.97
2016-04-12T00:36:46.934Z,1005.98
2016-04-12T00:36:56.918Z,1005.97
2016-04-12T00:37:06.918Z,1005.99
2016-04-12T00:37:16.934Z,1005.99
2016-04-12T00:37:26.887Z,1005.95
2016-04-12T00:37:36.906Z,1005.95
2016-04-12T00:37:46.890Z,1005.94
2016-04-12T00:37:56.906Z,1005.93
2016-04-12T00:38:06.874Z,1005.93
2016-04-12T00:38:16.874Z,1005.96
2016-04-12T00:38:26.874Z,1005.94
2016-04-12T00:38:36.862Z,1005.93
2016-04-12T00:38:46.877Z,1005.9
2016-04-12T00:38:56.862Z,1005.9
2016-04-12T00:39:06.877Z,1005.92
2016-04-12T00:39:16.862Z,1005.87
2016-04-12T00:39:26.862Z,1005.93
2016-04-12T00:39:36.848Z,1005.89
2016-04-12T00:39:46.879Z,1005.93
2016-04-12T00:39:56.848Z,1005.9
2016-04-12T00:40:06.833Z,1005.92
2016-04-12T00:40:16.848Z,1005.86
2016-04-12T00:40:26.676Z,1005.86
2016-04-12T00:40:36.836Z,1005.88
2016-04-12T00:40:46.820Z,1005.82
2016-04-12T00:40:56.820Z,1005.86
2016-04-12T00:41:06.836Z,1005.86
2016-04-12T00:41:16.820Z,1005.86
2016-04-12T00:41:26.804Z,1005.87
2016-04-12T00:41:36.822Z,1005.83
2016-04-12T00:41:46.806Z,1005.88
2016-04-12T00:41:56.791Z,1005.83
2016-04-12T00:42:06.791Z,1005.86
2016-04-12T00:42:16.806Z,1005.87
2016-04-12T00:42:26.791Z,1005.85
2016-04-12T00:42:36.795Z,1005.86
2016-04-12T00:42:46.779Z,1005.84
2016-04-12T00:42:56.779Z,1005.84
2016-04-12T00:43:06.779Z,1005.83
2016-04-12T00:43:16.763Z,1005.82
2016-04-12T00:43:26.763Z,1005.86
2016-04-12T00:43:36.765Z,1005.82
2016-04-12T00:43:46.750Z,1005.85
2016-04-12T00:43:56.750Z,1005.86
2016-04-12T00:44:06.734Z,1005.86
2016-04-12T00:44:16.750Z,1005.86
2016-04-12T00:44:26.734Z,1005.88
2016-04-12T00:44:36.736Z,1005.88
2016-04-12T00:44:46.721Z,1005.87
2016-04-12T00:44:56.736Z,1005.91
2016-04-12T00:45:06.736Z,1005.95
2016-04-12T00:45:16.705Z,1005.94
2016-04-12T00:45:26.721Z,1005.96
2016-04-12T00:45:36.709Z,1005.97
2016-04-12T00:45:46.709Z,1005.98
2016-04-12T00:45:56.709Z,1005.98
2016-04-12T00:46:06.709Z,1006
2016-04-12T00:46:16.553Z,1006
2016-04-12T00:46:26.771Z,1006.01
2016-04-12T00:46:36.680Z,1006
2016-04-12T00:46:46.680Z,1006.02
2016-04-12T00:46:56.680Z,1006.01
2016-04-12T00:47:06.680Z,1006.01
2016-04-12T00:47:16.664Z,1006.03
2016-04-12T00:47:26.680Z,1006.03
2016-04-12T00:47:36.667Z,1006.02
2016-04-12T00:47:46.667Z,1005.99
2016-04-12T00:47:56.667Z,1006
2016-04-12T00:48:06.651Z,1005.99
2016-04-12T00:48:16.651Z,1006.04
2016-04-12T00:48:26.667Z,1005.99
2016-04-12T00:48:36.653Z,1005.98
2016-04-12T00:48:46.638Z,1006
2016-04-12T00:48:56.638Z,1005.95
2016-04-12T00:49:06.638Z,1005.99
2016-04-12T00:49:16.638Z,1005.94
2016-04-12T00:49:26.622Z,1005.97
2016-04-12T00:49:36.626Z,1005.94
2016-04-12T00:49:46.626Z,1005.95
2016-04-12T00:49:56.626Z,1005.97
2016-04-12T00:50:06.611Z,1005.97
2016-04-12T00:50:16.626Z,1005.95
2016-04-12T00:50:26.626Z,1005.94
2016-04-12T00:50:36.628Z,1005.93
2016-04-12T00:50:46.628Z,1005.98
2016-04-12T00:50:56.597Z,1005.96
2016-04-12T00:51:06.613Z,1005.96
2016-04-12T00:51:16.597Z,1006.01
2016-04-12T00:51:26.597Z,1006.02
2016-04-12T00:51:36.584Z,1006.01
2016-04-12T00:51:46.569Z,1005.96
2016-04-12T00:51:56.584Z,1005.98
2016-04-12T00:52:06.553Z,1005.98
2016-04-12T00:52:16.569Z,1005.96
2016-04-12T00:52:26.584Z,1005.97
2016-04-12T00:52:36.571Z,1005.97
2016-04-12T00:52:46.555Z,1005.95
2016-04-12T00:52:56.539Z,1005.97
2016-04-12T00:53:06.555Z,1005.99
2016-04-12T00:53:16.539Z,1005.99
2016-04-12T00:53:26.539Z,1005.99
2016-04-12T00:53:36.542Z,1005.96
2016-04-12T00:53:46.527Z,1005.95
2016-04-12T00:53:56.527Z,1005.96
2016-04-12T00:54:06.527Z,1005.94
2016-04-12T00:54:16.527Z,1005.95
2016-04-12T00:54:26.527Z,1005.95
2016-04-12T00:54:36.514Z,1005.98
2016-04-12T00:54:46.514Z,1005.92
2016-04-12T00:54:56.499Z,1005.98
2016-04-12T00:55:06.514Z,1005.99
2016-04-12T00:55:16.483Z,1005.96
2016-04-12T00:55:26.499Z,1005.97
2016-04-12T00:55:36.486Z,1005.97
2016-04-12T00:55:46.486Z,1005.96
2016-04-12T00:55:56.486Z,1005.99
2016-04-12T00:56:06.486Z,1006.01
2016-04-12T00:56:16.486Z,1005.98
2016-04-12T00:56:26.470Z,1005.99
2016-04-12T00:56:36.472Z,1005.99
2016-04-12T00:56:46.472Z,1006.01
2016-04-12T00:56:56.441Z,1006.01
2016-04-12T00:57:06.441Z,1005.99
2016-04-12T00:57:16.457Z,1005.99
2016-04-12T00:57:26.457Z,1006
2016-04-12T00:57:36.443Z,1005.98
2016-04-12T00:57:46.443Z,1006.01
2016-04-12T00:57:56.427Z,1006.04
2016-04-12T00:58:06.427Z,1005.98
2016-04-12T00:58:16.427Z,1006.02
2016-04-12T00:58:26.427Z,1006.04
2016-04-12T00:58:36.416Z,1006.02
2016-04-12T00:58:46.447Z,1006.02
2016-04-12T00:58:56.416Z,1006.05
2016-04-12T00:59:06.416Z,1006.01
2016-04-12T00:59:16.260Z,1006.02
2016-04-12T00:59:26.400Z,1006.03
2016-04-12T00:59:36.402Z,1006.05
2016-04-12T00:59:46.387Z,1006.05
2016-04-12T00:59:56.418Z,1006.06
2016-04-12T01:00:06.387Z,1006.03
2016-04-12T01:00:16.387Z,1006
2016-04-12T01:00:26.371Z,1006.03
2016-04-12T01:00:36.373Z,1006.03
2016-04-12T01:00:46.373Z,1006.03
2016-04-12T01:00:56.357Z,1006.06
2016-04-12T01:01:06.357Z,1006.04
2016-04-12T01:01:16.357Z,1006.07
2016-04-12T01:01:26.357Z,1006.03
2016-04-12T01:01:36.361Z,1006.05
2016-04-12T01:01:46.439Z,1006.05
2016-04-12T01:01:56.455Z,1006.03
2016-04-12T01:02:06.346Z,1006.03
2016-04-12T01:02:16.330Z,1006.03
2016-04-12T01:02:26.330Z,1006.04
2016-04-12T01:02:36.332Z,1006.02
2016-04-12T01:02:46.332Z,1006.02
2016-04-12T01:02:56.316Z,1006.02
2016-04-12T01:03:06.316Z,1006.06
2016-04-12T01:03:16.316Z,1006.02
2016-04-12T01:03:26.316Z,1006.03
2016-04-12T01:03:36.319Z,1006.06
2016-04-12T01:03:46.304Z,1006
2016-04-12T01:03:56.304Z,1006.01
2016-04-12T01:04:06.304Z,1006.03
2016-04-12T01:04:16.288Z,1006.01
2016-04-12T01:04:26.288Z,1005.98
2016-04-12T01:04:36.290Z,1005.99
2016-04-12T01:04:46.275Z,1006
2016-04-12T01:04:56.275Z,1006.02
2016-04-12T01:05:06.275Z,1006.02
2016-04-12T01:05:16.275Z,1006
2016-04-12T01:05:26.259Z,1005.96
2016-04-12T01:05:36.278Z,1006
2016-04-12T01:05:46.262Z,1005.98
2016-04-12T01:05:56.262Z,1005.97
2016-04-12T01:06:06.246Z,1005.93
2016-04-12T01:06:16.278Z,1005.93
2016-04-12T01:06:26.262Z,1005.94
2016-04-12T01:06:36.249Z,1005.95
2016-04-12T01:06:46.249Z,1005.95
2016-04-12T01:06:56.234Z,1005.94
2016-04-12T01:07:06.234Z,1005.98
2016-04-12T01:07:16.218Z,1005.92
2016-04-12T01:07:26.249Z,1005.96
2016-04-12T01:07:36.221Z,1005.95
2016-04-12T01:07:46.221Z,1005.94
2016-04-12T01:07:56.205Z,1005.97
2016-04-12T01:08:06.190Z,1005.94
2016-04-12T01:08:16.205Z,1005.98
2016-04-12T01:08:26.221Z,1005.96
2016-04-12T01:08:36.192Z,1005.92
2016-04-12T01:08:46.207Z,1005.94
2016-04-12T01:08:56.192Z,1005.96
2016-04-12T01:09:06.192Z,1005.94
2016-04-12T01:09:16.192Z,1005.94
2016-04-12T01:09:26.176Z,1005.96
2016-04-12T01:09:36.179Z,1005.98
2016-04-12T01:09:46.179Z,1005.95
2016-04-12T01:09:56.179Z,1005.99
2016-04-12T01:10:06.164Z,1005.95
2016-04-12T01:10:16.148Z,1005.99
2016-04-12T01:10:26.164Z,1005.92
2016-04-12T01:10:36.167Z,1005.99
2016-04-12T01:10:46.135Z,1005.99
2016-04-12T01:10:56.151Z,1006
2016-04-12T01:11:06.151Z,1005.96
2016-04-12T01:11:16.135Z,1005.98
2016-04-12T01:11:26.135Z,1005.94
2016-04-12T01:11:36.123Z,1006
2016-04-12T01:11:46.123Z,1005.99
2016-04-12T01:11:56.123Z,1005.97
2016-04-12T01:12:06.123Z,1005.97
2016-04-12T01:12:16.123Z,1005.94
2016-04-12T01:12:26.107Z,1005.96
2016-04-12T01:12:36.109Z,1006
2016-04-12T01:12:46.093Z,1005.99
2016-04-12T01:12:56.093Z,1005.95
2016-04-12T01:13:06.093Z,1005.95
2016-04-12T01:13:16.078Z,1005.95
2016-04-12T01:13:26.109Z,1005.99
2016-04-12T01:13:36.080Z,1005.97
2016-04-12T01:13:46.080Z,1005.94
2016-04-12T01:13:56.064Z,1006
2016-04-12T01:14:06.080Z,1005.96
2016-04-12T01:14:16.064Z,1005.95
2016-04-12T01:14:26.064Z,1005.94
2016-04-12T01:14:36.067Z,1005.92
2016-04-12T01:14:46.067Z,1005.95
2016-04-12T01:14:56.067Z,1005.94
2016-04-12T01:15:06.052Z,1005.93
2016-04-12T01:15:16.052Z,1005.91
2016-04-12T01:15:26.036Z,1005.86
2016-04-12T01:15:36.039Z,1005.9
2016-04-12T01:15:46.055Z,1005.88
2016-04-12T01:15:56.039Z,1005.84
2016-04-12T01:16:06.023Z,1005.85
2016-04-12T01:16:16.023Z,1005.82
2016-04-12T01:16:26.023Z,1005.82
2016-04-12T01:16:36.026Z,1005.83
2016-04-12T01:16:45.917Z,1005.8
2016-04-12T01:16:56.104Z,1005.85
2016-04-12T01:17:06.011Z,1005.78
2016-04-12T01:17:15.995Z,1005.83
2016-04-12T01:17:25.995Z,1005.78
2016-04-12T01:17:35.997Z,1005.78
2016-04-12T01:17:45.997Z,1005.79
2016-04-12T01:17:55.981Z,1005.78
2016-04-12T01:18:05.981Z,1005.77
2016-04-12T01:18:15.981Z,1005.75
2016-04-12T01:18:25.981Z,1005.79
2016-04-12T01:18:35.984Z,1005.77
2016-04-12T01:18:45.969Z,1005.77
2016-04-12T01:18:55.969Z,1005.79
2016-04-12T01:19:05.953Z,1005.72
2016-04-12T01:19:15.953Z,1005.77
2016-04-12T01:19:25.953Z,1005.74
2016-04-12T01:19:35.956Z,1005.74
2016-04-12T01:19:45.956Z,1005.71
2016-04-12T01:19:55.956Z,1005.75
2016-04-12T01:20:05.941Z,1005.76
2016-04-12T01:20:15.941Z,1005.76
2016-04-12T01:20:25.925Z,1005.75
2016-04-12T01:20:35.943Z,1005.76
2016-04-12T01:20:45.927Z,1005.74
2016-04-12T01:20:55.911Z,1005.73
2016-04-12T01:21:05.911Z,1005.77
2016-04-12T01:21:15.911Z,1005.74
2016-04-12T01:21:25.927Z,1005.74
2016-04-12T01:21:35.914Z,1005.75
2016-04-12T01:21:45.899Z,1005.72
2016-04-12T01:21:55.883Z,1005.71
2016-04-12T01:22:05.899Z,1005.72
2016-04-12T01:22:15.899Z,1005.72
2016-04-12T01:22:25.883Z,1005.7
2016-04-12T01:22:35.886Z,1005.69
2016-04-12T01:22:45.870Z,1005.72
2016-04-12T01:22:55.730Z,1005.74
2016-04-12T01:23:05.855Z,1005.72
2016-04-12T01:23:15.855Z,1005.71
2016-04-12T01:23:25.870Z,1005.75
2016-04-12T01:23:35.858Z,1005.74
2016-04-12T01:23:45.873Z,1005.73
2016-04-12T01:23:55.858Z,1005.73
2016-04-12T01:24:05.842Z,1005.75
2016-04-12T01:24:15.858Z,1005.72
2016-04-12T01:24:25.842Z,1005.76
2016-04-12T01:24:35.844Z,1005.74
2016-04-12T01:24:45.829Z,1005.74
2016-04-12T01:24:55.829Z,1005.71
2016-04-12T01:25:05.829Z,1005.7
2016-04-12T01:25:15.829Z,1005.71
2016-04-12T01:25:25.813Z,1005.72
2016-04-12T01:25:35.816Z,1005.73
2016-04-12T01:25:45.800Z,1005.71
2016-04-12T01:25:55.816Z,1005.68
2016-04-12T01:26:05.800Z,1005.7
2016-04-12T01:26:15.800Z,1005.71
2016-04-12T01:26:25.800Z,1005.69
2016-04-12T01:26:35.803Z,1005.71
2016-04-12T01:26:45.772Z,1005.71
2016-04-12T01:26:55.788Z,1005.68
2016-04-12T01:27:05.788Z,1005.7
2016-04-12T01:27:15.772Z,1005.67
2016-04-12T01:27:25.772Z,1005.71
2016-04-12T01:27:35.774Z,1005.67
2016-04-12T01:27:45.758Z,1005.68
2016-04-12T01:27:55.758Z,1005.71
2016-04-12T01:28:05.758Z,1005.71
2016-04-12T01:28:15.758Z,1005.66
2016-04-12T01:28:25.774Z,1005.7
2016-04-12T01:28:35.761Z,1005.68
2016-04-12T01:28:45.746Z,1005.68
2016-04-12T01:28:55.746Z,1005.71
2016-04-12T01:29:05.746Z,1005.71
2016-04-12T01:29:15.730Z,1005.7
2016-04-12T01:29:25.715Z,1005.69
2016-04-12T01:29:35.733Z,1005.74
2016-04-12T01:29:45.718Z,1005.71
2016-04-12T01:29:55.718Z,1005.7
2016-04-12T01:30:05.702Z,1005.71
2016-04-12T01:30:15.718Z,1005.69
2016-04-12T01:30:25.702Z,1005.71
2016-04-12T01:30:35.720Z,1005.72
2016-04-12T01:30:45.704Z,1005.74
2016-04-12T01:30:55.688Z,1005.71
2016-04-12T01:31:05.688Z,1005.7
2016-04-12T01:31:15.688Z,1005.75
2016-04-12T01:31:25.673Z,1005.75
2016-04-12T01:31:35.676Z,1005.76
2016-04-12T01:31:45.535Z,1005.76
2016-04-12T01:31:55.723Z,1005.75
2016-04-12T01:32:05.676Z,1005.72
2016-04-12T01:32:15.660Z,1005.74
2016-04-12T01:32:25.676Z,1005.71
2016-04-12T01:32:35.647Z,1005.76
2016-04-12T01:32:45.647Z,1005.74
2016-04-12T01:32:55.507Z,1005.72
2016-04-12T01:33:05.647Z,1005.73
2016-04-12T01:33:15.632Z,1005.76
2016-04-12T01:33:25.647Z,1005.75
2016-04-12T01:33:35.634Z,1005.76
2016-04-12T01:33:45.634Z,1005.73
2016-04-12T01:33:55.618Z,1005.73
2016-04-12T01:34:05.634Z,1005.76
2016-04-12T01:34:15.634Z,1005.75
2016-04-12T01:34:25.618Z,1005.75
2016-04-12T01:34:35.606Z,1005.75
2016-04-12T01:34:45.606Z,1005.75
2016-04-12T01:34:55.621Z,1005.78
2016-04-12T01:35:05.606Z,1005.8
2016-04-12T01:35:15.606Z,1005.76
2016-04-12T01:35:25.590Z,1005.77
2016-04-12T01:35:35.577Z,1005.76
2016-04-12T01:35:45.593Z,1005.82
2016-04-12T01:35:55.577Z,1005.8
2016-04-12T01:36:05.577Z,1005.79
2016-04-12T01:36:15.577Z,1005.8
2016-04-12T01:36:25.577Z,1005.8
2016-04-12T01:36:35.564Z,1005.76
2016-04-12T01:36:45.564Z,1005.83
2016-04-12T01:36:55.564Z,1005.81
2016-04-12T01:37:05.564Z,1005.81
2016-04-12T01:37:15.548Z,1005.81
2016-04-12T01:37:25.564Z,1005.8
2016-04-12T01:37:35.535Z,1005.85
2016-04-12T01:37:45.551Z,1005.8
2016-04-12T01:37:55.379Z,1005.84
2016-04-12T01:38:05.535Z,1005.8
2016-04-12T01:38:15.535Z,1005.8
2016-04-12T01:38:25.535Z,1005.81
2016-04-12T01:38:35.523Z,1005.81
2016-04-12T01:38:45.523Z,1005.85
2016-04-12T01:38:55.507Z,1005.86
2016-04-12T01:39:05.523Z,1005.8
2016-04-12T01:39:15.492Z,1005.78
2016-04-12T01:39:25.507Z,1005.83
2016-04-12T01:39:35.494Z,1005.8
2016-04-12T01:39:45.509Z,1005.78
2016-04-12T01:39:55.494Z,1005.79
2016-04-12T01:40:05.478Z,1005.82
2016-04-12T01:40:15.494Z,1005.79
2016-04-12T01:40:25.478Z,1005.81
2016-04-12T01:40:35.481Z,1005.82
2016-04-12T01:40:45.481Z,1005.82
2016-04-12T01:40:55.481Z,1005.82
2016-04-12T01:41:05.465Z,1005.82
2016-04-12T01:41:15.465Z,1005.83
2016-04-12T01:41:25.465Z,1005.81
2016-04-12T01:41:35.468Z,1005.85
2016-04-12T01:41:45.468Z,1005.83
2016-04-12T01:41:55.453Z,1005.83
2016-04-12T01:42:05.437Z,1005.8
2016-04-12T01:42:15.437Z,1005.83
2016-04-12T01:42:25.437Z,1005.78
2016-04-12T01:42:35.423Z,1005.79
2016-04-12T01:42:45.439Z,1005.81
2016-04-12T01:42:55.408Z,1005.8
2016-04-12T01:43:05.423Z,1005.77
2016-04-12T01:43:15.408Z,1005.77
2016-04-12T01:43:25.408Z,1005.76
2016-04-12T01:43:35.412Z,1005.81
2016-04-12T01:43:45.412Z,1005.78
2016-04-12T01:43:55.412Z,1005.8
2016-04-12T01:44:05.396Z,1005.81
2016-04-12T01:44:15.396Z,1005.78
2016-04-12T01:44:25.396Z,1005.81
2016-04-12T01:44:35.398Z,1005.77
2016-04-12T01:44:45.383Z,1005.78
2016-04-12T01:44:55.398Z,1005.77
2016-04-12T01:45:05.383Z,1005.74
2016-04-12T01:45:15.367Z,1005.78
2016-04-12T01:45:25.367Z,1005.75
2016-04-12T01:45:35.370Z,1005.75
2016-04-12T01:45:45.354Z,1005.74
2016-04-12T01:45:55.354Z,1005.76
2016-04-12T01:46:05.354Z,1005.75
2016-04-12T01:46:15.339Z,1005.71
2016-04-12T01:46:25.354Z,1005.75
2016-04-12T01:46:35.341Z,1005.74
2016-04-12T01:46:45.341Z,1005.75
2016-04-12T01:46:55.528Z,1005.72
2016-04-12T01:47:05.559Z,1005.73
2016-04-12T01:47:15.325Z,1005.73
2016-04-12T01:47:25.325Z,1005.74
2016-04-12T01:47:35.312Z,1005.74
2016-04-12T01:47:45.312Z,1005.68
2016-04-12T01:47:55.328Z,1005.73
2016-04-12T01:48:05.312Z,1005.72
2016-04-12T01:48:15.312Z,1005.74
2016-04-12T01:48:25.312Z,1005.71
2016-04-12T01:48:35.315Z,1005.67
2016-04-12T01:48:45.300Z,1005.68
2016-04-12T01:48:55.300Z,1005.72
2016-04-12T01:49:05.300Z,1005.68
2016-04-12T01:49:15.284Z,1005.67
2016-04-12T01:49:25.269Z,1005.72
2016-04-12T01:49:35.271Z,1005.64
2016-04-12T01:49:45.271Z,1005.68
2016-04-12T01:49:55.271Z,1005.68
2016-04-12T01:50:05.271Z,1005.62
2016-04-12T01:50:15.255Z,1005.62
2016-04-12T01:50:25.255Z,1005.69
2016-04-12T01:50:35.258Z,1005.7
2016-04-12T01:50:45.258Z,1005.68
2016-04-12T01:50:55.227Z,1005.65
2016-04-12T01:51:05.258Z,1005.67
2016-04-12T01:51:15.242Z,1005.66
2016-04-12T01:51:25.227Z,1005.66
2016-04-12T01:51:35.214Z,1005.67
2016-04-12T01:51:45.214Z,1005.65
2016-04-12T01:51:55.230Z,1005.63
2016-04-12T01:52:05.214Z,1005.64
2016-04-12T01:52:15.214Z,1005.65
2016-04-12T01:52:25.230Z,1005.65
2016-04-12T01:52:35.216Z,1005.65
2016-04-12T01:52:45.216Z,1005.66
2016-04-12T01:52:55.200Z,1005.67
2016-04-12T01:53:05.200Z,1005.67
2016-04-12T01:53:15.200Z,1005.64
2016-04-12T01:53:25.169Z,1005.63
2016-04-12T01:53:35.188Z,1005.6
2016-04-12T01:53:45.172Z,1005.65
2016-04-12T01:53:55.188Z,1005.65
2016-04-12T01:54:05.172Z,1005.71
2016-04-12T01:54:15.157Z,1005.59
2016-04-12T01:54:25.172Z,1005.58
2016-04-12T01:54:35.175Z,1005.64
2016-04-12T01:54:45.175Z,1005.65
2016-04-12T01:54:55.160Z,1005.62
2016-04-12T01:55:05.144Z,1005.67
2016-04-12T01:55:15.160Z,1005.6
2016-04-12T01:55:25.128Z,1005.62
2016-04-12T01:55:35.131Z,1005.6
2016-04-12T01:55:45.131Z,1005.65
2016-04-12T01:55:55.147Z,1005.64
2016-04-12T01:56:05.131Z,1005.66
2016-04-12T01:56:15.116Z,1005.6
2016-04-12T01:56:24.975Z,1005.61
2016-04-12T01:56:35.119Z,1005.62
2016-04-12T01:56:45.119Z,1005.66
2016-04-12T01:56:55.103Z,1005.66
2016-04-12T01:57:05.103Z,1005.62
2016-04-12T01:57:15.103Z,1005.66
2016-04-12T01:57:25.087Z,1005.63
2016-04-12T01:57:35.089Z,1005.62
2016-04-12T01:57:45.089Z,1005.63
2016-04-12T01:57:55.089Z,1005.62
2016-04-12T01:58:05.089Z,1005.58
2016-04-12T01:58:15.074Z,1005.6
2016-04-12T01:58:25.074Z,1005.59
2016-04-12T01:58:35.076Z,1005.61
2016-04-12T01:58:45.076Z,1005.58
2016-04-12T01:58:55.060Z,1005.65
2016-04-12T01:59:05.060Z,1005.63
2016-04-12T01:59:15.060Z,1005.6
2016-04-12T01:59:25.045Z,1005.59
2016-04-12T01:59:35.049Z,1005.58
2016-04-12T01:59:45.049Z,1005.59
2016-04-12T01:59:55.049Z,1005.57
2016-04-12T02:00:05.049Z,1005.6
2016-04-12T02:00:15.033Z,1005.56
2016-04-12T02:00:25.049Z,1005.59
2016-04-12T02:00:35.019Z,1005.59
2016-04-12T02:00:45.035Z,1005.59
2016-04-12T02:00:55.019Z,1005.55
2016-04-12T02:01:05.019Z,1005.59
2016-04-12T02:01:15.019Z,1005.6
2016-04-12T02:01:24.988Z,1005.57
2016-04-12T02:01:35.007Z,1005.56